createdAt,value
2019-05-20T00:03:06.583Z,98218.78
2019-05-20T00:07:27.281Z,98223.16
2019-05-20T00:11:47.750Z,98216.94
2019-05-20T00:16:07.925Z,98220.99
2019-05-20T00:20:28.824Z,98225.40
2019-05-20T00:24:49.247Z,98225.05
2019-05-20T00:29:09.737Z,98234.25
2019-05-20T00:33:30.330Z,98234.66
2019-05-20T00:37:51.030Z,98234.38
2019-05-20T00:42:12.512Z,98224.17
2019-05-20T00:46:32.790Z,98221.81
2019-05-20T00:50:54.137Z,98210.00
2019-05-20T00:55:23.378Z,98224.13
2019-05-20T00:59:43.547Z,98232.16
2019-05-20T01:04:03.834Z,98237.37
2019-05-20T01:08:25.292Z,98240.32
2019-05-20T01:12:45.686Z,98247.03
2019-05-20T01:17:05.920Z,98233.64
2019-05-20T01:21:26.133Z,98245.77
2019-05-20T01:25:47.046Z,98244.55
2019-05-20T01:30:09.170Z,98243.44
2019-05-20T01:34:29.386Z,98248.53
2019-05-20T01:38:50.160Z,98237.14
2019-05-20T01:43:10.522Z,98245.41
2019-05-20T01:47:30.739Z,98238.73
2019-05-20T01:51:51.186Z,98246.36
2019-05-20T01:56:11.788Z,98246.04
2019-05-20T02:00:31.901Z,98251.39
2019-05-20T02:04:52.008Z,98244.82
2019-05-20T02:09:12.528Z,98244.55
2019-05-20T02:13:32.914Z,98243.96
2019-05-20T02:17:53.367Z,98248.84
2019-05-20T02:22:13.932Z,98245.03
2019-05-20T02:26:34.025Z,98251.95
2019-05-20T02:30:56.816Z,98249.11
2019-05-20T02:35:17.152Z,98239.83
2019-05-20T02:39:37.586Z,98242.81
2019-05-20T02:43:58.297Z,98245.48
2019-05-20T02:48:19.032Z,98244.03
2019-05-20T02:52:39.238Z,98252.42
2019-05-20T02:56:59.426Z,98247.82
2019-05-20T03:01:21.981Z,98248.49
2019-05-20T03:05:42.302Z,98253.47
2019-05-20T03:10:03.034Z,98262.23
2019-05-20T03:14:24.162Z,98263.92
2019-05-20T03:18:44.455Z,98262.27
2019-05-20T03:23:04.687Z,98261.95
2019-05-20T03:27:25.277Z,98256.51
2019-05-20T03:31:46.141Z,98267.56
2019-05-20T03:36:06.736Z,98266.84
2019-05-20T03:40:27.342Z,98282.82
2019-05-20T03:44:47.546Z,98274.17
2019-05-20T03:49:07.602Z,98275.48
2019-05-20T03:53:28.047Z,98273.27
2019-05-20T03:57:48.555Z,98283.00
2019-05-20T04:02:08.703Z,98281.62
2019-05-20T04:06:28.933Z,98283.20
2019-05-20T04:10:49.673Z,98277.87
2019-05-20T04:15:10.158Z,98279.34
2019-05-20T04:19:30.736Z,98275.44
2019-05-20T04:23:51.064Z,98281.70
2019-05-20T04:28:11.876Z,98298.37
2019-05-20T04:32:32.222Z,98290.92
2019-05-20T04:36:52.568Z,98302.63
2019-05-20T04:41:13.274Z,98299.95
2019-05-20T04:45:33.956Z,98299.55
2019-05-20T04:49:54.175Z,98305.82
2019-05-20T04:54:14.286Z,98307.35
2019-05-20T04:58:34.803Z,98308.27
2019-05-20T05:02:55.092Z,98295.22
2019-05-20T05:07:15.747Z,98294.07
2019-05-20T05:11:36.163Z,98303.02
2019-05-20T05:15:56.794Z,98297.50
2019-05-20T05:20:18.662Z,98290.28
2019-05-20T05:24:39.330Z,98291.44
2019-05-20T05:29:00.049Z,98291.70
2019-05-20T05:33:20.593Z,98298.92
2019-05-20T05:37:40.585Z,98297.48
2019-05-20T05:42:00.765Z,98298.11
2019-05-20T05:46:21.762Z,98290.16
2019-05-20T05:50:41.980Z,98296.27
2019-05-20T05:55:02.077Z,98299.28
2019-05-20T05:59:22.689Z,98305.52
2019-05-20T06:03:42.921Z,98304.67
2019-05-20T06:08:03.577Z,98308.92
2019-05-20T06:12:24.440Z,98316.65
2019-05-20T06:16:44.657Z,98326.59
2019-05-20T06:21:05.991Z,98326.50
2019-05-20T06:25:26.754Z,98327.51
2019-05-20T06:29:47.201Z,98328.47
2019-05-20T06:34:08.491Z,98334.03
2019-05-20T06:38:29.123Z,98347.64
2019-05-20T06:42:49.473Z,98350.87
2019-05-20T06:47:10.398Z,98349.53
2019-05-20T06:51:31.304Z,98340.77
2019-05-20T06:55:52.395Z,98344.38
2019-05-20T07:00:15.008Z,98346.75
2019-05-20T07:04:36.136Z,98352.92
2019-05-20T07:08:57.578Z,98369.63
2019-05-20T07:13:17.741Z,98368.20
2019-05-20T07:17:38.451Z,98368.98
2019-05-20T07:21:59.114Z,98373.31
2019-05-20T07:26:19.717Z,98373.31
2019-05-20T07:30:43.229Z,98360.13
2019-05-20T07:35:04.234Z,98363.48
2019-05-20T07:39:25.039Z,98357.19
2019-05-20T07:43:45.596Z,98372.39
2019-05-20T07:48:05.953Z,98370.27
2019-05-20T07:52:27.008Z,98364.70
2019-05-20T07:56:50.397Z,98375.75
2019-05-20T08:01:10.960Z,98370.97
2019-05-20T08:05:32.310Z,98367.49
2019-05-20T08:09:53.232Z,98371.50
2019-05-20T08:14:14.209Z,98376.38
2019-05-20T08:18:34.929Z,98373.89
2019-05-20T08:22:55.716Z,98382.39
2019-05-20T08:27:16.685Z,98383.42
2019-05-20T08:31:37.874Z,98374.65
2019-05-20T08:35:58.840Z,98372.84
2019-05-20T08:40:19.980Z,98386.66
2019-05-20T08:44:40.729Z,98376.66
2019-05-20T08:49:01.750Z,98390.44
2019-05-20T08:53:22.096Z,98392.17
2019-05-20T08:57:42.934Z,98401.52
2019-05-20T09:02:03.401Z,98390.03
2019-05-20T09:06:24.601Z,98386.59
2019-05-20T09:10:45.400Z,98394.68
2019-05-20T09:15:06.441Z,98402.24
2019-05-20T09:19:27.169Z,98402.38
2019-05-20T09:23:47.671Z,98407.47
2019-05-20T09:28:09.189Z,98406.93
2019-05-20T09:32:29.694Z,98406.23
2019-05-20T09:36:50.585Z,98413.52
2019-05-20T09:41:11.492Z,98412.36
2019-05-20T09:45:32.208Z,98417.59
2019-05-20T09:49:52.422Z,98412.70
2019-05-20T09:54:13.192Z,98404.40
2019-05-20T09:58:33.856Z,98414.47
2019-05-20T10:02:54.172Z,98414.63
2019-05-20T10:07:15.520Z,98412.36
2019-05-20T10:11:36.687Z,98414.66
2019-05-20T10:15:57.350Z,98430.52
2019-05-20T10:20:18.627Z,98423.91
2019-05-20T10:24:38.884Z,98428.48
2019-05-20T10:28:59.404Z,98434.02
2019-05-20T10:33:20.127Z,98438.88
2019-05-20T10:37:40.878Z,98431.80
2019-05-20T10:42:01.844Z,98430.47
2019-05-20T10:46:23.250Z,98440.19
2019-05-20T10:50:44.269Z,98428.55
2019-05-20T10:55:05.983Z,98427.26
2019-05-20T10:59:26.846Z,98439.15
2019-05-20T11:03:47.816Z,98432.69
2019-05-20T11:08:10.939Z,98448.14
2019-05-20T11:12:31.629Z,98451.64
2019-05-20T11:16:52.293Z,98454.02
2019-05-20T11:21:13.179Z,98460.87
2019-05-20T11:25:33.489Z,98464.12
2019-05-20T11:29:56.676Z,98461.27
2019-05-20T11:34:17.556Z,98465.18
2019-05-20T11:38:38.440Z,98470.45
2019-05-20T11:42:59.837Z,98458.99
2019-05-20T11:47:19.936Z,98471.05
2019-05-20T11:51:40.661Z,98476.62
2019-05-20T11:56:01.848Z,98470.95
2019-05-20T12:00:22.501Z,98470.63
2019-05-20T12:04:43.712Z,98465.94
2019-05-20T12:09:05.850Z,98472.73
2019-05-20T12:13:26.900Z,98473.82
2019-05-20T12:17:47.597Z,98474.36
2019-05-20T12:22:07.767Z,98467.89
2019-05-20T12:26:28.462Z,98468.19
2019-05-20T12:30:48.518Z,98469.67
2019-05-20T12:35:09.443Z,98468.10
2019-05-20T12:39:30.146Z,98468.34
2019-05-20T12:44:10.193Z,98462.92
2019-05-20T12:48:13.608Z,98462.52
2019-05-20T12:52:33.784Z,98468.78
2019-05-20T12:56:54.747Z,98462.94
2019-05-20T13:01:15.426Z,98469.86
2019-05-20T13:05:35.954Z,98465.36
2019-05-20T13:09:56.724Z,98459.56
2019-05-20T13:14:17.573Z,98463.85
2019-05-20T13:18:38.117Z,98463.44
2019-05-20T13:22:59.425Z,98456.83
2019-05-20T13:27:20.757Z,98447.00
2019-05-20T13:31:40.985Z,98450.37
2019-05-20T13:36:01.946Z,98449.70
2019-05-20T13:40:22.290Z,98443.08
2019-05-20T13:44:43.461Z,98452.95
2019-05-20T13:49:05.803Z,98464.74
2019-05-20T13:53:26.544Z,98462.75
2019-05-20T13:57:47.683Z,98471.78
2019-05-20T14:02:08.354Z,98462.56
2019-05-20T14:06:29.047Z,98461.19
2019-05-20T14:11:03.034Z,98460.25
2019-05-20T14:15:11.873Z,98459.63
2019-05-20T14:19:32.505Z,98450.97
2019-05-20T14:24:12.952Z,98458.72
2019-05-20T14:28:36.850Z,98454.95
2019-05-20T14:32:57.883Z,98451.86
2019-05-20T14:37:18.773Z,98454.09
2019-05-20T14:41:39.182Z,98453.53
2019-05-20T14:46:00.457Z,98457.75
2019-05-20T14:50:21.542Z,98464.01
2019-05-20T14:54:47.126Z,98462.59
2019-05-20T14:59:07.949Z,98468.28
2019-05-20T15:03:28.663Z,98465.41
2019-05-20T15:07:49.542Z,98462.77
2019-05-20T15:12:10.333Z,98461.55
2019-05-20T15:16:31.252Z,98455.05
2019-05-20T15:20:52.170Z,98453.25
2019-05-20T15:25:12.678Z,98451.48
2019-05-20T15:29:33.883Z,98460.13
2019-05-20T15:33:54.704Z,98473.53
2019-05-20T15:38:15.594Z,98471.46
2019-05-20T15:42:36.385Z,98470.33
2019-05-20T15:46:57.797Z,98466.07
2019-05-20T15:51:18.898Z,98463.66
2019-05-20T15:55:39.517Z,98462.05
2019-05-20T16:00:00.255Z,98457.70
2019-05-20T16:04:22.398Z,98463.05
2019-05-20T16:08:42.512Z,98460.39
2019-05-20T16:13:03.615Z,98448.52
2019-05-20T16:17:24.737Z,98458.44
2019-05-20T16:21:47.898Z,98453.87
2019-05-20T16:26:08.113Z,98446.64
2019-05-20T16:30:28.941Z,98444.53
2019-05-20T16:34:49.852Z,98449.34
2019-05-20T16:39:10.408Z,98451.39
2019-05-20T16:43:31.522Z,98455.32
2019-05-20T16:47:52.544Z,98447.14
2019-05-20T16:52:13.552Z,98448.41
2019-05-20T16:56:34.836Z,98452.62
2019-05-20T17:00:55.867Z,98453.19
2019-05-20T17:05:17.140Z,98464.38
2019-05-20T17:09:37.648Z,98462.40
2019-05-20T17:13:57.916Z,98468.70
2019-05-20T17:18:18.462Z,98469.44
2019-05-20T17:22:38.505Z,98472.28
2019-05-20T17:26:59.581Z,98466.25
2019-05-20T17:31:20.368Z,98458.48
2019-05-20T17:35:40.669Z,98463.85
2019-05-20T17:40:01.241Z,98462.76
2019-05-20T17:44:22.296Z,98459.70
2019-05-20T17:48:44.068Z,98465.53
2019-05-20T17:53:04.032Z,98477.50
2019-05-20T17:57:25.006Z,98484.42
2019-05-20T18:01:46.133Z,98490.02
2019-05-20T18:06:06.639Z,98500.00
2019-05-20T18:10:26.819Z,98500.78
2019-05-20T18:14:47.797Z,98508.48
2019-05-20T18:19:08.586Z,98511.66
2019-05-20T18:23:29.069Z,98522.27
2019-05-20T18:27:49.490Z,98519.83
2019-05-20T18:32:10.450Z,98513.77
2019-05-20T18:36:30.980Z,98511.91
2019-05-20T18:40:51.907Z,98513.53
2019-05-20T18:45:12.310Z,98512.04
2019-05-20T18:49:33.019Z,98509.27
2019-05-20T18:53:53.797Z,98522.59
2019-05-20T18:58:16.635Z,98516.13
2019-05-20T19:02:37.770Z,98523.99
2019-05-20T19:06:58.527Z,98520.19
2019-05-20T19:11:26.938Z,98524.92
2019-05-20T19:15:47.684Z,98510.70
2019-05-20T19:20:15.186Z,98508.95
2019-05-20T19:24:41.657Z,98518.83
2019-05-20T19:29:20.288Z,98522.48
2019-05-20T19:33:43.147Z,98516.66
2019-05-20T19:38:07.096Z,98523.03
2019-05-20T19:42:41.865Z,98522.54
2019-05-20T19:47:05.310Z,98522.19
2019-05-20T19:51:26.132Z,98519.72
2019-05-20T19:55:56.520Z,98526.27
2019-05-20T20:00:19.075Z,98531.44
2019-05-20T20:04:40.939Z,98522.34
2019-05-20T20:09:10.875Z,98516.56
2019-05-20T20:13:34.397Z,98531.25
2019-05-20T20:17:54.586Z,98535.14
2019-05-20T20:22:19.621Z,98540.67
2019-05-20T20:26:40.391Z,98540.52
2019-05-20T20:31:01.239Z,98531.98
2019-05-20T20:35:21.685Z,98533.39
2019-05-20T20:39:42.825Z,98534.04
2019-05-20T20:44:03.790Z,98533.20
2019-05-20T20:48:24.489Z,98547.53
2019-05-20T20:52:59.024Z,98548.50
2019-05-20T20:57:19.854Z,98544.13
2019-05-20T21:01:40.948Z,98547.16
2019-05-20T21:06:01.486Z,98550.45
2019-05-20T21:10:22.449Z,98556.84
2019-05-20T21:14:47.045Z,98545.37
2019-05-20T21:19:07.790Z,98551.80
2019-05-20T21:23:28.603Z,98558.08
2019-05-20T21:27:49.901Z,98555.95
2019-05-20T21:32:12.249Z,98549.23
2019-05-20T21:36:46.520Z,98554.67
2019-05-20T21:40:57.022Z,98550.86
2019-05-20T21:45:17.463Z,98549.98
2019-05-20T21:49:46.752Z,98542.72
2019-05-20T21:54:07.298Z,98543.86
2019-05-20T21:58:27.645Z,98543.52
2019-05-20T22:02:51.942Z,98551.30
2019-05-20T22:07:12.111Z,98548.99
2019-05-20T22:11:32.389Z,98551.30
2019-05-20T22:15:52.647Z,98539.37
2019-05-20T22:20:12.813Z,98533.25
2019-05-20T22:24:33.974Z,98541.44
2019-05-20T22:28:54.470Z,98540.39
2019-05-20T22:33:15.113Z,98536.55
2019-05-20T22:37:35.681Z,98528.38
2019-05-20T22:41:56.331Z,98526.59
2019-05-20T22:46:16.922Z,98535.23
2019-05-20T22:50:37.398Z,98530.20
2019-05-20T22:54:58.583Z,98533.39
2019-05-20T22:59:19.345Z,98542.43
2019-05-20T23:03:40.332Z,98543.25
2019-05-20T23:08:01.439Z,98540.49
2019-05-20T23:12:22.188Z,98548.28
2019-05-20T23:16:42.294Z,98548.73
2019-05-20T23:21:02.837Z,98546.03
2019-05-20T23:25:23.653Z,98542.33
2019-05-20T23:29:44.322Z,98542.50
2019-05-20T23:34:12.752Z,98543.32
2019-05-20T23:38:27.710Z,98551.93
2019-05-20T23:42:48.107Z,98553.48
2019-05-20T23:47:08.343Z,98559.45
2019-05-20T23:51:28.623Z,98551.02
2019-05-20T23:55:49.570Z,98552.36
